AirNav   ATP
 
 354 users online  

CO15 Kelly Air Park
Elbert, Colorado, USA

GOING TO ELBERT?


FAA INFORMATION EFFECTIVE 29 MARCH 2018

Location

FAA Identifier: CO15
Lat/Long: 39-13-28.8000N / 104-38-23.6400W
39-13.480000N / 104-38.394000W
39.2246667 / -104.6399000
(estimated)
Elevation: 7040 ft. / 2146 m (estimated)
Variation: 11E (1985)
From city: 6 miles W of ELBERT, CO
Time zone: UTC -6 (UTC -7 during Standard Time)
Zip code: 80106

Airport Operations

Airport use: Private use. Permission required prior to landing
Activation date: 11/1988
Control tower: no
ARTCC: DENVER CENTER
FSS: DENVER FLIGHT SERVICE STATION
Attendance: UNATNDD
Wind indicator: yes
Segmented circle: yes

Airport Communications

UNICOM: 123.05
WX AWOS-3PT at FLY (17 nm S): 118.450 (719-683-5371)

Nearby radio navigation aids

VOR radial/distance  VOR name  Freq  Var
BRKr351/16.8BLACK FOREST VOR/DME112.5008E
FQFr171/27.9FALCON VORTAC116.3011E
FCSr357/33.1BUTTS VOR/DME108.8012E
DENr170/35.3DENVER VOR/DME117.9008E

 
NDB name  Hdg/Dist  Freq  Var  ID
IRONHORSE357/33.233512EIHS .. .... ...

Airport Services

Runway Information

Runway 17/35

Dimensions: 3800 x 36 ft. / 1158 x 11 m
Surface: asphalt
RUNWAY 17  RUNWAY 35
Traffic pattern: leftright

Runway 9/27

Dimensions: 1700 x 50 ft. / 518 x 15 m
Surface: turf
Operational restrictions: RY 09 NOT RECOMMENDED FOR TAKEOFF OR LANDING.
RUNWAY 9  RUNWAY 27
Traffic pattern: rightleft

Airport Ownership and Management from official FAA records

Ownership: Privately-owned
Owner: KELLY AIR PARK ASSN
24652 DAVID C JOHNSON LOOP
ELBERT, CO 80106-9512
Phone 303-648-3461
OR 303-648-0056.
Manager: FRANK NIEHUS
24652 DAVID C JOHNSON LOOP
ELBERT, CO 80106-9512
Phone (303) 648-3461

Airport Operational Statistics

Aircraft based on the field: 54
Single engine airplanes: 30
Gliders airplanes: 24
    

Additional Remarks

GLIDER ACTIVITY ON & INVOF ARPT.
WX AWOS AT MONUMENT HILL ON SITE: 134.375 (303-648-3479).
ULTRALIGHT ACTIVITY PROHIBITED

Instrument Procedures

There are no published instrument procedures at CO15.

Some nearby airports with instrument procedures:

KAPA - Centennial Airport (23 nm NW)
KCOS - City of Colorado Springs Municipal Airport (25 nm S)
KBKF - Buckley Air Force Base (29 nm N)
KFTG - Front Range Airport (34 nm N)
KDEN - Denver International Airport (38 nm N)
 
Loc | Ops | Rwys | IFR | FBO | Links
Com | Nav | Svcs | Stats | Notes

AirNav Hotels Sweepstakes
 
Area around CO15 (Kelly Air Park)
 
Road maps at: MapQuest Bing Google
 
Aerial photo
WARNING: Photo may not be current or correct
Aerial photo of CO15 (Kelly Air Park)
Taken early June 2010

Do you have a better or more recent aerial photo of Kelly Air Park that you would like to share? If so, please send us your photo.

 
Sectional chart

 
Airport distance calculator
Flying to Kelly Air Park? Find the distance to fly.

From to CO15

Sunrise and sunset
Times for 24-Apr-2018
 Local
(UTC-6)
 Zulu
(UTC)
Morning civil twilight05:4211:42
Sunrise06:1012:10
Sunset19:4401:44
Evening civil twilight20:1202:12

Current date and time
Zulu (UTC)  24-Apr-2018 07:36:04
Local (UTC-6)  24-Apr-2018 01:36:04
 
METAR
KMNH 240712Z AUTO 34015G19KT 1/2SM TS FG OVC001 00/00 A3031 RMK AO2 VIS 1/4V5 LTG DSNT E
KFLY 
17nm S 
240715Z AUTO 35023G36KT 10SM VCTS OVC004 03/02 A3023 RMK AO2 LTG DSNT NE AND E T00270020
KAFF 
18nm SW 
240658Z AUTO 35017G26KT 10SM BKN012 OVC018 06/03 A3024 RMK AO2 PK WND 35030/54 SLP191 T00550025 401841003
TAF
KAFF 
18nm SW 
232036Z 2320/2501 17012KT 9999 VCTS BKN060CB QNH3006INS TEMPO 2320/2401 VRB20G30KT 9000 -TSRA BECMG 2405/2406 34015G25KT 9999 VCSH BKN040 520009 QNH3011INS TEMPO 2406/2408 35025G35KT 530009 BECMG 2408/2409 36015G25KT 4800 -SN BKN012 630129 530009 QNH3014INS BECMG 2423/2424 36012G18KT 9999 NSW BKN030 610309 QNH3033INS TX19/2322Z TN02/2415Z LAST NO AMDS AFT 2400 NEXT 2411
NOTAMs
Click for the latest NOTAMs
NOTAMs are issued by the DoD/FAA and will open in a separate window not controlled by AirNav.

 

 
 

Would you like to see your business listed on this page?

 If your business provides an interesting product or service to pilots, flight crews, aircraft, or users of the Kelly Air Park, you should consider listing it here.  To start the listing process, click on the button below
 
Add a business
 

Other Pages about Kelly Air Park

www.kellyairpark.com
 
Update a link
 
Copyright © AirNav, LLC. All rights reserved. Privacy Policy  Contact